logo
Search for airport 
image banner adimage banner adimage banner ad
image banner ad

FAKOKS - Kokstad

Located in , South Africa

ICAO - , IATA -

Data provided by Airmate  

General information

Coordinates: S30°35'52" E29°23'46"
Elevation is 4143 feet MSL.
 
View others Airports in Kwazulu-Natal

Operational data

Special qualification required
Current time UTC:
Current local time:
Weather at : - ( 0 km )
METAR: KAFP 180131Z AUTO 00000KT 10SM BKN070 OVC090 23/21 A2987 RMK AO2 T02330207
View NOTAMs / SUP AIP / TFR affecting this airport [VIEW]
Communications frequencies: [VIEW]

Runways:

RWY identifierQFULength (ft)Width (ft)SurfaceLDA (ft)
01327°328166GRASS
19147°328166GRASS
1085°213366GRASS
28265°213366GRASS

Airport contact information

Address: South Africa

Satellite view of FAKOKS